Time;durP1;ratioP1;P1;durP2;ratioP2;P2;SDS_P1;SDS_P2;PMS_P1;PMS_P2;Temp;Humidity;BMP_temperature;BMP_pressure;BME280_temperature;BME280_humidity;BME280_pressure;Samples;Min_cycle;Max_cycle;Signal;HPM_P1;HPM_P2
2021/12/05 00:23:59;;;;;;;8.60;2.38;;;6.30;99.90;;;6.95;100.00;99274.19;4861392;29;20067;-75
2021/12/05 00:26:29;;;;;;;5.75;2.38;;;8.10;99.90;;;6.92;100.00;99282.97;4878188;29;20060;-76
2021/12/05 00:29:10;;;;;;;9.68;3.00;;;6.40;99.90;;;7.04;100.00;99275.72;4876912;29;20047;-75
2021/12/05 00:48:29;;;;;;;6.50;2.58;;;6.40;99.90;;;6.84;100.00;99265.78;4893612;29;20099;-75
2021/12/05 00:54:15;;;;;;;12.88;3.00;;;6.60;99.90;;;6.73;100.00;99266.91;4859506;29;20136;-75
2021/12/05 01:02:16;;;;;;;8.30;2.33;;;6.40;99.90;;;6.64;100.00;99281.06;4872594;29;20056;-75
2021/12/05 01:08:02;;;;;;;7.93;3.58;;;6.70;99.90;;;6.46;100.00;99292.81;4848827;29;20057;-76
2021/12/05 01:13:33;;;;;;;8.50;2.63;;;6.10;99.90;;;6.61;100.00;99290.72;4871246;29;20156;-76
2021/12/05 01:15:57;;;;;;;8.35;2.80;;;5.90;99.90;;;6.75;100.00;99293.03;4872690;29;20108;-75
2021/12/05 01:18:25;;;;;;;8.85;2.67;;;6.10;99.90;;;6.69;100.00;99293.16;4872500;29;20041;-76
2021/12/05 01:20:58;;;;;;;12.30;2.60;;;6.10;99.90;;;6.83;100.00;99295.44;4857477;29;20076;-75
2021/12/05 01:23:44;;;;;;;8.57;3.50;;;6.10;99.90;;;6.79;100.00;99300.75;4871733;29;20045;-75
2021/12/05 01:26:20;;;;;;;8.85;2.35;;;6.10;99.90;;;6.69;100.00;99294.03;4870167;29;20045;-75
2021/12/05 01:31:30;;;;;;;9.18;2.63;;;6.00;99.90;;;6.58;100.00;99303.88;4894767;29;20096;-75
2021/12/05 01:37:00;;;;;;;4.68;2.20;;;7.90;99.90;;;6.07;100.00;99287.66;4879382;29;20090;-75
2021/12/05 01:42:48;;;;;;;8.57;2.65;;;5.90;99.90;;;6.10;100.00;99283.25;4875604;29;20100;-75
2021/12/05 02:30:01;;;;;;;8.68;3.17;;;5.90;99.90;;;5.99;100.00;99266.03;4793569;29;20073;-76
2021/12/05 02:38:48;;;;;;;5.38;1.80;;;5.80;99.90;;;5.82;100.00;99259.44;4859637;29;20640;-76
2021/12/05 02:41:15;;;;;;;2.55;1.60;;;6.70;99.90;;;5.59;100.00;99253.00;4863215;29;20068;-75
2021/12/05 02:43:49;;;;;;;1.52;1.20;;;6.70;99.90;;;5.59;100.00;99259.94;4858821;29;20140;-75
2021/12/05 02:46:20;;;;;;;4.63;1.75;;;5.50;99.90;;;5.54;100.00;99271.34;4875242;29;20518;-76
2021/12/05 02:48:47;;;;;;;3.83;1.52;;;5.40;99.90;;;5.48;100.00;99253.22;4859663;29;20049;-75
2021/12/05 02:51:22;;;;;;;3.95;1.58;;;5.30;99.90;;;5.45;100.00;99257.66;4859804;29;20045;-75
2021/12/05 02:54:06;;;;;;;2.85;1.80;;;5.20;99.90;;;5.47;100.00;99274.13;4859364;29;20049;-75
2021/12/05 02:56:40;;;;;;;4.63;2.05;;;5.30;99.90;;;5.56;100.00;99270.47;4861740;29;20159;-76
2021/12/05 02:59:25;;;;;;;5.38;1.80;;;5.20;99.90;;;5.54;100.00;99262.66;4859901;29;20633;-75
2021/12/05 03:02:02;;;;;;;4.97;1.92;;;6.10;99.90;;;5.53;100.00;99267.03;4846562;29;20056;-75
2021/12/05 03:04:32;;;;;;;5.88;2.20;;;5.30;99.90;;;5.62;100.00;99257.28;4845102;29;20109;-75
2021/12/05 03:07:05;;;;;;;7.03;2.00;;;5.50;99.90;;;5.77;100.00;99261.31;4844264;29;20057;-75
2021/12/05 03:09:33;;;;;;;7.60;1.73;;;5.20;99.90;;;5.72;100.00;99265.78;4859624;29;20416;-75
2021/12/05 03:12:07;;;;;;;5.47;1.80;;;7.10;99.90;;;5.78;100.00;99270.88;4852965;29;20064;-75
2021/12/05 03:14:35;;;;;;;5.20;1.98;;;5.30;99.90;;;5.77;100.00;99264.78;4893406;29;20139;-75
2021/12/05 03:17:04;;;;;;;5.03;1.98;;;5.30;99.90;;;5.78;100.00;99253.47;4878014;29;20546;-75
2021/12/05 03:19:32;;;;;;;5.05;2.20;;;5.30;99.90;;;5.77;100.00;99263.94;4847474;29;20052;-76
2021/12/05 03:22:00;;;;;;;4.53;1.90;;;5.30;99.90;;;5.82;100.00;99267.28;4862471;29;20506;-75
2021/12/05 03:24:29;;;;;;;6.00;1.95;;;5.40;99.90;;;5.77;100.00;99266.53;4887467;29;20078;-76
2021/12/05 03:26:57;;;;;;;9.77;2.75;;;5.40;99.90;;;5.82;100.00;99270.78;4881588;29;20048;-76
2021/12/05 03:29:26;;;;;;;5.63;2.05;;;6.80;99.90;;;5.84;100.00;99262.88;4881167;29;20468;-76
2021/12/05 03:31:56;;;;;;;5.85;1.58;;;5.30;99.90;;;5.89;100.00;99255.81;4866030;29;20092;-76
2021/12/05 03:34:26;;;;;;;5.05;1.80;;;5.40;99.90;;;5.87;100.00;99254.13;4881014;29;20131;-76
2021/12/05 03:36:58;;;;;;;7.13;2.35;;;5.90;99.90;;;5.85;100.00;99250.69;4881581;29;20063;-76
2021/12/05 03:39:29;;;;;;;5.35;2.22;;;5.30;99.90;;;5.87;100.00;99249.78;4880439;29;20080;-75
2021/12/05 03:41:58;;;;;;;4.90;2.28;;;5.80;99.90;;;5.93;100.00;99248.75;4896150;29;20107;-75
2021/12/05 03:44:30;;;;;;;6.53;2.70;;;5.40;99.90;;;5.98;100.00;99244.31;4879689;29;20079;-76
2021/12/05 03:47:00;;;;;;;5.93;2.88;;;5.40;99.90;;;5.88;100.00;99246.28;4870389;29;20044;-76
2021/12/05 03:49:28;;;;;;;5.78;2.53;;;5.40;99.90;;;5.84;100.00;99244.59;4877362;29;20108;-75
2021/12/05 03:52:01;;;;;;;7.18;2.90;;;5.40;99.90;;;5.91;100.00;99242.72;4876165;29;20124;-75
2021/12/05 03:54:29;;;;;;;6.45;3.28;;;5.40;99.90;;;5.74;100.00;99245.72;4875822;29;20514;-76
2021/12/05 03:56:59;;;;;;;8.63;2.35;;;5.40;99.90;;;5.91;100.00;99238.38;4877279;29;20048;-75
2021/12/05 03:59:30;;;;;;;7.43;2.65;;;5.50;99.90;;;5.94;100.00;99240.06;4877505;29;20111;-76
2021/12/05 04:02:00;;;;;;;8.07;2.47;;;5.50;99.90;;;6.02;100.00;99239.91;4893897;29;20107;-75
2021/12/05 04:04:30;;;;;;;6.50;1.95;;;5.50;99.90;;;5.81;100.00;99235.13;4876279;29;20110;-76
2021/12/05 04:07:00;;;;;;;7.38;2.40;;;5.40;99.90;;;5.79;100.00;99238.66;4877232;29;20083;-75
2021/12/05 04:09:31;;;;;;;4.60;1.80;;;5.40;99.90;;;5.89;100.00;99248.00;4876288;29;20573;-76
2021/12/05 04:12:01;;;;;;;23.27;6.90;;;5.50;99.90;;;5.82;100.00;99243.78;4876788;29;20127;-75
2021/12/05 04:14:46;;;;;;;6.53;2.15;;;5.40;99.90;;;6.02;100.00;99248.59;4877635;29;20438;-76
2021/12/05 04:17:16;;;;;;;4.32;2.10;;;5.40;99.90;;;5.79;100.00;99244.75;4892125;29;20064;-76
2021/12/05 04:19:44;;;;;;;2.03;1.70;;;5.40;99.90;;;5.84;100.00;99251.59;4876897;29;20063;-75
2021/12/05 04:22:11;;;;;;;7.78;2.17;;;5.50;99.90;;;5.85;100.00;99243.72;4893839;29;20079;-76
2021/12/05 04:24:40;;;;;;;6.43;1.70;;;5.30;99.90;;;5.90;100.00;99233.19;4876431;29;20053;-75
2021/12/05 04:27:08;;;;;;;4.78;1.77;;;7.40;99.90;;;5.88;100.00;99230.63;4861450;29;20048;-75
2021/12/05 04:29:37;;;;;;;4.55;1.70;;;5.40;99.90;;;5.89;100.00;99224.50;4860862;29;20076;-75
2021/12/05 04:32:07;;;;;;;7.40;2.50;;;5.30;99.90;;;5.92;100.00;99231.38;4876582;29;20054;-76
2021/12/05 04:34:35;;;;;;;8.68;2.20;;;5.30;99.90;;;5.82;100.00;99226.38;4891214;29;20135;-75
2021/12/05 04:37:03;;;;;;;4.57;2.17;;;5.50;99.90;;;5.83;100.00;99224.63;4876238;29;20064;-76
2021/12/05 04:39:33;;;;;;;5.60;1.75;;;5.30;99.90;;;5.75;100.00;99224.78;4876302;29;20080;-76
2021/12/05 04:42:01;;;;;;;6.43;2.80;;;5.40;99.90;;;5.81;100.00;99219.47;4876243;29;20059;-75
2021/12/05 04:44:29;;;;;;;4.47;2.47;;;5.40;99.90;;;5.76;100.00;99223.06;4875699;29;20048;-75
2021/12/05 04:47:00;;;;;;;8.55;3.47;;;5.30;99.90;;;5.81;100.00;99216.84;4891378;29;20510;-75
2021/12/05 04:49:28;;;;;;;6.88;2.10;;;5.40;99.90;;;5.80;100.00;99215.13;4860581;29;20611;-75
2021/12/05 04:51:57;;;;;;;5.35;2.15;;;5.30;99.90;;;5.74;100.00;99212.66;4875546;29;20072;-75
2021/12/05 04:54:24;;;;;;;7.15;2.60;;;5.30;99.90;;;5.70;100.00;99211.00;4859977;29;20052;-75
2021/12/05 04:56:51;;;;;;;6.10;2.38;;;6.70;99.90;;;5.66;100.00;99215.44;4860937;29;20055;-76
2021/12/05 04:59:32;;;;;;;6.97;2.42;;;5.10;99.90;;;5.62;100.00;99221.63;4875788;29;20155;-76
2021/12/05 05:01:59;;;;;;;4.90;1.60;;;5.20;99.90;;;5.65;100.00;99210.25;4874644;29;20123;-76
2021/12/05 05:04:29;;;;;;;5.95;2.35;;;5.10;99.90;;;5.65;100.00;99210.25;4901502;29;20246;-75
2021/12/05 05:07:10;;;;;;;10.00;2.53;;;5.20;99.90;;;5.71;100.00;99212.72;4877726;29;20040;-75
2021/12/05 05:09:38;;;;;;;3.55;2.50;;;5.20;99.90;;;5.58;100.00;99213.88;4864143;29;20055;-76
2021/12/05 05:12:05;;;;;;;6.10;2.83;;;5.20;99.90;;;5.66;100.00;99204.16;4879195;29;20052;-75
2021/12/05 05:14:33;;;;;;;5.18;2.03;;;5.20;99.90;;;5.45;100.00;99202.88;4861666;29;20048;-75
2021/12/05 05:17:00;;;;;;;5.70;2.08;;;5.20;99.90;;;5.37;100.00;99209.09;4876798;29;20055;-76
2021/12/05 05:19:33;;;;;;;3.47;1.73;;;5.10;99.90;;;5.39;100.00;99212.56;4884195;29;20409;-75
2021/12/05 05:25:20;;;;;;;3.03;1.88;;;6.80;99.90;;;5.35;100.00;99212.63;4897102;29;20455;-75
2021/12/05 05:28:35;;;;;;;4.05;2.03;;;5.10;99.90;;;5.37;100.00;99216.06;4899374;29;20118;-76
2021/12/05 05:42:33;;;;;;;7.40;2.45;;;5.10;99.90;;;5.48;100.00;99229.75;4840278;29;20136;-76
2021/12/05 05:47:25;;;;;;;6.85;2.00;;;5.00;99.90;;;5.52;100.00;99231.41;4839939;29;20521;-76
2021/12/05 05:49:57;;;;;;;4.78;2.00;;;5.20;99.90;;;5.46;100.00;99238.50;4841075;29;20577;-76
2021/12/05 05:52:25;;;;;;;5.88;2.28;;;7.10;99.90;;;5.52;100.00;99233.13;4838200;29;20126;-75
2021/12/05 05:54:55;;;;;;;6.95;1.70;;;5.10;99.90;;;5.51;100.00;99237.50;4837630;29;20068;-76
2021/12/05 06:00:16;;;;;;;7.60;1.92;;;5.10;99.90;;;5.62;100.00;99239.00;4839386;29;20057;-76
2021/12/05 06:05:33;;;;;;;3.72;1.88;;;5.20;99.90;;;5.60;100.00;99240.78;4837558;29;19935;-76
2021/12/05 06:08:00;;;;;;;5.95;2.78;;;5.20;99.90;;;5.51;100.00;99234.03;4822136;29;20077;-77
2021/12/05 06:10:29;;;;;;;7.00;2.55;;;7.40;99.90;;;5.63;100.00;99238.97;4859886;29;20057;-76
2021/12/05 06:12:58;;;;;;;9.38;3.90;;;5.20;99.90;;;5.48;100.00;99247.16;4859194;29;20049;-76
2021/12/05 06:15:28;;;;;;;4.15;2.58;;;5.10;99.90;;;5.41;100.00;99235.13;4857269;29;20063;-75
2021/12/05 06:17:56;;;;;;;5.85;2.05;;;5.20;99.90;;;5.43;100.00;99246.38;4842283;29;20059;-76
2021/12/05 06:20:29;;;;;;;4.78;2.00;;;5.10;99.90;;;5.58;100.00;99247.81;4857496;29;20680;-77
2021/12/05 06:23:00;;;;;;;6.75;2.47;;;5.20;99.90;;;5.52;100.00;99259.22;4842421;29;20159;-76
2021/12/05 06:25:32;;;;;;;5.53;2.10;;;5.10;99.90;;;5.63;100.00;99259.88;4841912;29;20057;-76
2021/12/05 06:28:08;;;;;;;8.85;2.28;;;5.10;99.90;;;5.59;100.00;99258.22;4873715;29;20059;-76
2021/12/05 06:41:33;;;;;;;19.17;17.52;;;5.10;99.90;;;5.58;100.00;99269.56;4860681;29;20075;-76
2021/12/05 06:46:39;;;;;;;75.30;62.43;;;5.80;99.90;;;5.46;100.00;99280.22;4861810;29;20055;-76
2021/12/05 06:49:06;;;;;;;7.80;5.45;;;5.20;99.90;;;5.53;100.00;99281.81;4860226;29;20072;-76
2021/12/05 06:51:33;;;;;;;5.60;2.65;;;5.20;99.90;;;5.53;100.00;99279.19;4829760;29;20053;-76
2021/12/05 06:54:00;;;;;;;5.32;2.45;;;5.50;99.90;;;5.50;100.00;99271.44;4860053;29;20783;-76
2021/12/05 06:56:28;;;;;;;10.57;7.20;;;5.20;99.90;;;5.48;100.00;99288.88;4860219;29;20086;-76
2021/12/05 06:58:55;;;;;;;3.80;2.25;;;5.20;99.90;;;5.51;100.00;99283.59;4878749;29;20045;-75
2021/12/05 07:01:23;;;;;;;4.90;2.17;;;6.30;99.90;;;5.56;100.00;99279.16;4844499;29;20056;-76
2021/12/05 07:03:51;;;;;;;5.45;2.20;;;4.30;99.90;;;5.47;100.00;99277.59;4843555;29;20079;-76
2021/12/05 07:06:29;;;;;;;8.73;2.42;;;6.60;99.90;;;5.53;100.00;99277.47;4859770;29;20075;-76
2021/12/05 07:09:06;;;;;;;8.23;2.67;;;5.20;99.90;;;5.53;100.00;99277.47;4846140;29;20048;-76
2021/12/05 07:11:47;;;;;;;4.88;2.90;;;5.20;99.90;;;5.54;100.00;99284.41;4865155;29;20079;-76
2021/12/05 07:22:49;;;;;;;15.05;13.68;;;5.20;99.90;;;5.52;100.00;99277.50;4881702;29;20155;-75
2021/12/05 07:25:08;;;;;;;14.57;13.05;;;5.20;99.90;;;5.47;100.00;99284.56;4895076;29;20052;-75
2021/12/05 07:44:11;;;;;;;6.05;3.45;;;5.20;99.90;;;5.56;100.00;99287.00;4882579;29;20045;-77
2021/12/05 07:46:39;;;;;;;8.90;3.67;;;5.10;99.90;;;5.55;100.00;99287.88;4867162;29;20565;-77
2021/12/05 07:49:10;;;;;;;7.60;6.32;;;5.10;99.90;;;5.39;100.00;99296.03;4857591;29;20109;-77
2021/12/05 07:51:44;;;;;;;10.15;7.45;;;6.80;99.90;;;5.44;100.00;99289.84;4865541;29;20690;-77
2021/12/05 07:56:48;;;;;;;18.70;16.70;;;6.40;99.90;;;5.37;100.00;99294.31;4869663;29;20056;-76
2021/12/05 08:16:10;;;;;;;11.25;6.50;;;7.00;99.90;;;5.20;100.00;99290.31;4882540;29;20100;-77
2021/12/05 08:18:41;;;;;;;15.73;11.95;;;7.60;99.90;;;5.22;100.00;99303.28;4876571;29;20056;-77
2021/12/05 08:21:11;;;;;;;9.77;6.30;;;5.90;99.90;;;5.11;100.00;99298.28;4860345;29;20494;-78
2021/12/05 08:23:39;;;;;;;8.32;7.40;;;5.80;99.90;;;5.18;100.00;99304.25;4887817;29;20503;-76
2021/12/05 08:26:09;;;;;;;8.40;4.75;;;5.00;99.90;;;5.19;100.00;99304.22;4871067;29;20051;-77
2021/12/05 08:41:58;;;;;;;7.35;3.83;;;5.10;99.90;;;5.65;100.00;99294.63;4871455;29;20053;-75
2021/12/05 09:21:23;;;;;;;7.68;4.28;;;5.70;99.90;;;6.29;100.00;99321.13;4895057;29;20135;-75
2021/12/05 10:07:27;;;;;;;4.40;2.00;;;6.20;99.90;;;6.38;100.00;99339.19;4853281;29;20053;-76
2021/12/05 10:27:24;;;;;;;4.45;3.78;;;5.80;99.90;;;6.16;100.00;99337.06;4863763;29;20053;-77
2021/12/05 10:38:51;;;;;;;4.25;2.80;;;7.70;99.90;;;6.28;100.00;99328.09;4851908;29;20060;-79
2021/12/05 10:41:34;;;;;;;5.82;1.90;;;5.90;99.90;;;6.16;100.00;99331.84;4848577;29;20057;-80
2021/12/05 10:44:08;;;;;;;7.97;3.10;;;5.80;99.90;;;6.17;100.00;99335.31;4879974;29;20100;-79
2021/12/05 10:46:39;;;;;;;5.82;3.45;;;7.30;99.90;;;6.17;100.00;99335.31;4866999;29;20036;-77
2021/12/05 10:49:15;;;;;;;4.93;2.35;;;5.90;99.90;;;6.05;100.00;99333.84;4867634;29;20455;-79
2021/12/05 10:51:55;;;;;;;4.43;2.40;;;7.60;99.90;;;6.31;100.00;99335.00;4866558;29;20071;-78
2021/12/05 10:54:27;;;;;;;5.57;3.25;;;5.80;99.90;;;6.38;100.00;99328.75;4884257;29;20045;-79
2021/12/05 10:57:00;;;;;;;3.00;2.33;;;5.90;99.90;;;6.37;100.00;99327.03;4883261;29;20047;-77
2021/12/05 10:59:39;;;;;;;2.88;2.08;;;5.90;99.90;;;6.35;100.00;99334.06;4877220;29;20096;-76
2021/12/05 11:02:15;;;;;;;4.18;2.65;;;5.90;99.90;;;6.39;100.00;99327.84;4867587;29;20104;-76
2021/12/05 11:04:46;;;;;;;4.50;2.50;;;7.10;99.90;;;6.49;100.00;99331.09;4845912;29;20067;-75
2021/12/05 11:07:18;;;;;;;3.70;2.35;;;5.90;99.90;;;6.43;100.00;99320.81;4864199;29;20092;-75
2021/12/05 11:09:49;;;;;;;4.13;2.65;;;6.20;99.90;;;6.50;100.00;99323.25;4864481;29;20101;-75
2021/12/05 11:12:23;;;;;;;5.32;2.65;;;6.00;99.90;;;6.38;100.00;99321.75;4860662;29;20053;-75
2021/12/05 11:14:57;;;;;;;5.10;2.72;;;6.00;99.90;;;6.44;100.00;99325.97;4916343;29;20032;-75
2021/12/05 11:17:30;;;;;;;7.80;3.20;;;6.60;99.90;;;6.59;100.00;99319.53;4890904;29;20049;-76
2021/12/05 11:20:09;;;;;;;5.18;2.65;;;6.00;99.90;;;6.66;100.00;99315.88;4907711;29;20083;-76
2021/12/05 11:22:43;;;;;;;5.97;3.55;;;6.10;99.90;;;6.77;100.00;99315.59;4894200;29;20068;-76
2021/12/05 11:25:18;;;;;;;6.05;4.10;;;6.10;99.90;;;6.72;100.00;99322.69;4855619;29;20529;-75
2021/12/05 11:27:55;;;;;;;3.70;2.45;;;6.20;99.90;;;6.85;100.00;99320.63;4878649;29;20048;-73
2021/12/05 11:30:30;;;;;;;3.75;2.42;;;6.20;99.90;;;6.80;100.00;99314.66;4878138;29;20103;-73
2021/12/05 11:33:18;;;;;;;5.22;2.88;;;6.30;99.90;;;6.98;100.00;99310.72;4867373;29;20044;-74
2021/12/05 11:35:52;;;;;;;5.97;2.85;;;6.40;99.90;;;6.98;100.00;99310.72;4880679;29;20044;-73
2021/12/05 11:38:23;;;;;;;6.80;3.00;;;6.40;99.90;;;6.84;100.00;99307.59;4896122;29;20108;-73
2021/12/05 11:41:12;;;;;;;6.90;4.25;;;6.50;99.90;;;7.04;100.00;99297.47;4896419;29;20107;-74
2021/12/05 11:43:45;;;;;;;6.10;2.80;;;6.50;99.90;;;7.24;100.00;99301.31;4912967;29;20148;-73
2021/12/05 11:46:36;;;;;;;10.55;6.05;;;6.60;99.90;;;7.34;100.00;99292.31;4913415;29;20104;-73
2021/12/05 11:49:13;;;;;;;5.85;3.63;;;6.70;99.90;;;7.47;100.00;99291.97;4881443;29;20535;-74
2021/12/05 11:51:58;;;;;;;11.07;7.00;;;6.80;99.90;;;7.59;100.00;99290.75;4881250;29;20478;-75
2021/12/05 11:54:29;;;;;;;19.88;13.13;;;7.80;99.90;;;7.50;100.00;99286.63;4894405;29;20075;-74
2021/12/05 11:57:27;;;;;;;4.97;3.20;;;8.70;99.90;;;7.69;100.00;99286.09;4861805;29;20045;-75
2021/12/05 11:59:57;;;;;;;5.43;4.57;;;7.10;99.90;;;7.57;100.00;99282.09;4859456;29;20053;-74
2021/12/05 12:02:33;;;;;;;4.78;2.90;;;9.20;99.90;;;7.62;100.00;99280.19;4858615;29;20117;-74
2021/12/05 12:05:23;;;;;;;6.28;2.55;;;7.20;99.90;;;7.55;100.00;99268.19;4875393;29;20057;-74
2021/12/05 12:07:53;;;;;;;4.28;2.92;;;8.70;99.90;;;7.44;100.00;99281.59;4843643;29;20041;-74
2021/12/05 12:10:36;;;;;;;2.50;1.85;;;7.10;99.90;;;7.52;100.00;99269.13;4875561;29;20045;-74
2021/12/05 12:13:22;;;;;;;7.13;2.50;;;7.10;99.90;;;7.55;100.00;99269.03;4860069;29;20482;-74
2021/12/05 12:15:59;;;;;;;7.78;5.03;;;7.10;99.90;;;7.45;100.00;99275.44;4876919;29;20041;-74
2021/12/05 12:18:34;;;;;;;12.65;10.65;;;7.10;99.90;;;7.67;100.00;99270.44;4849915;29;20080;-74
2021/12/05 12:21:26;;;;;;;6.88;6.18;;;9.30;99.90;;;7.87;100.00;99269.00;4875426;29;20056;-74
2021/12/05 12:23:56;;;;;;;7.35;4.65;;;7.30;99.90;;;7.58;100.00;99271.59;4872294;29;20055;-74
2021/12/05 12:26:25;;;;;;;8.52;6.68;;;7.40;99.90;;;7.88;100.00;99268.94;4853994;29;20053;-74
2021/12/05 12:28:58;;;;;;;5.10;3.45;;;7.30;99.90;;;7.94;100.00;99265.25;4876999;29;20040;-73
2021/12/05 12:31:36;;;;;;;6.20;3.03;;;7.30;99.90;;;7.96;100.00;99258.25;4877892;29;20049;-75
2021/12/05 12:34:10;;;;;;;6.32;2.80;;;7.30;99.90;;;8.16;100.00;99257.59;4876539;29;20053;-74
2021/12/05 12:36:43;;;;;;;6.63;3.90;;;7.40;99.90;;;8.31;100.00;99255.38;4870933;29;20116;-74
2021/12/05 12:39:16;;;;;;;11.13;6.15;;;9.30;99.90;;;8.30;100.00;99265.03;4884451;29;20439;-74
2021/12/05 12:42:23;;;;;;;9.65;4.93;;;7.70;99.90;;;8.53;100.00;99265.22;4875441;29;20416;-74
2021/12/05 12:45:20;;;;;;;11.70;6.38;;;7.90;99.90;;;8.18;100.00;99263.63;4870851;29;20108;-74
2021/12/05 12:47:56;;;;;;;11.35;6.43;;;7.90;99.90;;;8.02;100.00;99259.78;4868372;29;20506;-74
2021/12/05 12:50:38;;;;;;;6.82;3.65;;;7.80;99.90;;;7.87;100.00;99254.13;4868447;29;20044;-74
2021/12/05 12:53:23;;;;;;;18.02;9.68;;;7.70;99.90;;;7.79;100.00;99253.50;4864694;29;20116;-75
2021/12/05 12:56:02;;;;;;;7.57;4.85;;;7.60;99.90;;;7.70;100.00;99262.50;4858993;29;20051;-74
2021/12/05 12:58:50;;;;;;;4.65;2.35;;;7.50;99.90;;;7.64;100.00;99275.75;4873343;29;20048;-73
2021/12/05 13:02:25;;;;;;;3.47;2.40;;;7.40;99.90;;;7.34;100.00;99273.16;4888340;29;20132;-75
2021/12/05 13:10:01;;;;;;;5.95;4.28;;;7.70;99.90;;;7.55;100.00;99271.66;4863934;29;20041;-76
2021/12/05 13:10:47;;;;;;;4.43;2.90;;;7.10;99.90;;;7.28;100.00;99268.94;4865558;29;20058;-74
2021/12/05 13:13:27;;;;;;;5.60;3.60;;;7.10;99.90;;;7.55;100.00;99273.44;4867622;29;20627;-75
2021/12/05 13:16:09;;;;;;;6.80;3.30;;;8.00;99.90;;;7.98;100.00;99272.16;4876740;29;20044;-74
2021/12/05 13:18:40;;;;;;;7.70;4.32;;;7.40;99.90;;;7.95;100.00;99275.69;4876378;29;20116;-73
2021/12/05 13:21:36;;;;;;;5.95;4.00;;;7.60;99.90;;;8.24;100.00;99278.31;4859116;29;20053;-73
2021/12/05 13:24:31;;;;;;;3.83;2.72;;;6.40;99.90;;;8.99;100.00;99265.38;4870042;29;20155;-73
2021/12/05 13:27:10;;;;;;;5.70;4.28;;;8.20;99.90;;;9.18;100.00;99274.31;4875862;29;20059;-74
2021/12/05 13:29:58;;;;;;;6.28;3.67;;;9.90;98.50;;;9.54;100.00;99262.53;4894327;29;20115;-75
2021/12/05 13:32:30;;;;;;;5.53;3.20;;;9.00;98.80;;;9.70;100.00;99267.19;4894335;29;20127;-74
2021/12/05 13:35:08;;;;;;;7.25;3.65;;;10.20;98.30;;;10.04;100.00;99268.50;4893233;29;20143;-73
2021/12/05 13:37:48;;;;;;;10.48;5.13;;;9.50;97.70;;;10.55;100.00;99284.91;4860316;29;20051;-74
2021/12/05 13:40:33;;;;;;;17.03;8.00;;;9.90;98.00;;;10.82;100.00;99286.44;4857268;29;20128;-74
2021/12/05 13:43:06;;;;;;;23.65;11.23;;;10.20;97.90;;;10.98;100.00;99292.75;4872958;29;20293;-74
2021/12/05 13:45:44;;;;;;;12.05;6.75;;;10.50;98.00;;;11.19;97.66;99271.72;4875732;29;20064;-75
2021/12/05 13:48:26;;;;;;;9.25;5.47;;;10.90;96.70;;;11.28;95.58;99276.56;4875856;29;20040;-75
2021/12/05 13:51:04;;;;;;;16.10;7.43;;;11.10;96.70;;;11.31;84.30;99273.78;4875945;29;20451;-76
2021/12/05 13:53:46;;;;;;;5.03;3.35;;;11.30;95.10;;;11.32;88.57;99282.53;4880394;29;20048;-75
2021/12/05 13:56:24;;;;;;;2.47;2.15;;;11.40;95.40;;;11.00;84.07;99284.81;4895339;29;20048;-77
2021/12/05 13:59:05;;;;;;;4.68;3.22;;;11.40;94.30;;;10.99;86.68;99291.00;4864644;29;20687;-76
2021/12/05 14:01:49;;;;;;;5.15;2.67;;;11.20;94.90;;;10.92;87.50;99293.03;4895258;29;20061;-77
2021/12/05 14:04:18;;;;;;;5.82;2.90;;;11.00;94.90;;;10.38;91.42;99293.47;4879690;29;20052;-76
2021/12/05 14:07:06;;;;;;;5.32;2.75;;;10.80;95.50;;;10.49;95.72;99299.16;4894983;29;20113;-76
2021/12/05 14:09:47;;;;;;;4.70;2.50;;;10.40;96.20;;;10.33;96.76;99298.03;4865070;29;20524;-77
2021/12/05 14:12:27;;;;;;;6.05;3.97;;;10.20;96.10;;;10.14;98.56;99292.66;4868856;29;20109;-77
2021/12/05 14:15:00;;;;;;;;;;;10.50;96.60;;;9.98;95.07;99303.78;4862779;29;20044;-76
2021/12/05 14:17:32;;;;;;;2.25;1.80;;;9.80;96.20;;;9.62;97.39;99313.00;4861156;29;19927;-76
2021/12/05 14:20:19;;;;;;;3.33;1.83;;;9.60;96.30;;;9.61;100.00;99318.31;4877899;29;20088;-77
2021/12/05 14:22:50;;;;;;;2.30;1.65;;;9.40;97.30;;;9.35;100.00;99320.97;4863268;29;20045;-76
2021/12/05 14:25:23;;;;;;;2.50;1.90;;;9.40;97.00;;;9.39;100.00;99326.09;4847690;29;20440;-76
2021/12/05 14:27:56;;;;;;;4.35;2.92;;;9.10;97.20;;;9.28;100.00;99329.97;4854670;29;20044;-76
2021/12/05 14:30:30;;;;;;;46.70;32.22;;;9.00;97.80;;;9.16;100.00;99330.41;4868987;29;20105;-76
2021/12/05 14:32:58;;;;;;;28.80;20.17;;;8.90;98.10;;;8.92;100.00;99340.81;4871869;29;20548;-76
2021/12/05 14:35:36;;;;;;;9.73;5.88;;;8.80;98.30;;;8.84;100.00;99337.63;4870123;29;20093;-76
2021/12/05 14:38:06;;;;;;;10.98;4.93;;;8.70;98.30;;;8.80;100.00;99345.56;4884587;29;20051;-76
2021/12/05 14:40:36;;;;;;;8.30;5.88;;;8.50;98.60;;;8.78;100.00;99347.38;4860157;29;20128;-73
2021/12/05 14:43:08;;;;;;;8.25;5.07;;;8.50;98.80;;;8.72;100.00;99342.34;4859677;29;20052;-75
2021/12/05 14:45:39;;;;;;;5.70;3.83;;;8.40;98.80;;;8.74;100.00;99340.53;4860538;29;20140;-76
2021/12/05 14:48:13;;;;;;;14.27;11.55;;;8.60;99.20;;;8.63;100.00;99340.88;4891078;29;20682;-75
2021/12/05 14:50:52;;;;;;;39.72;35.72;;;8.20;99.40;;;8.58;100.00;99358.50;4879667;29;20052;-74
2021/12/05 14:53:24;;;;;;;32.97;29.88;;;8.50;99.90;;;8.43;100.00;99343.25;4878332;29;20045;-75
2021/12/05 14:55:58;;;;;;;34.58;31.45;;;8.10;99.90;;;8.32;100.00;99359.31;4863324;29;20735;-74
2021/12/05 14:58:30;;;;;;;59.90;54.53;;;8.00;99.90;;;8.17;100.00;99366.72;4893650;29;20052;-76
2021/12/05 15:00:58;;;;;;;30.88;27.77;;;8.30;99.90;;;8.05;100.00;99364.50;4878227;29;20049;-75
2021/12/05 15:03:30;;;;;;;17.52;15.73;;;7.90;99.90;;;8.19;100.00;99372.78;4878742;29;20104;-75
2021/12/05 15:06:04;;;;;;;15.52;12.02;;;7.90;99.90;;;8.13;100.00;99365.13;4863579;29;20057;-75
2021/12/05 15:08:32;;;;;;;12.20;10.52;;;7.90;99.90;;;7.97;100.00;99371.72;4862116;29;20131;-75
2021/12/05 15:11:04;;;;;;;12.93;9.45;;;7.80;99.90;;;8.01;100.00;99371.59;4860964;29;20513;-77
2021/12/05 15:13:32;;;;;;;8.13;6.35;;;7.80;99.90;;;7.90;100.00;99371.03;4878337;29;20132;-75
2021/12/05 15:16:01;;;;;;;6.85;4.38;;;8.40;99.90;;;7.88;100.00;99371.09;4878526;29;20124;-75
2021/12/05 15:18:29;;;;;;;6.00;3.83;;;8.50;99.90;;;7.83;100.00;99372.97;4878201;29;20044;-75
2021/12/05 15:20:59;;;;;;;5.82;3.30;;;7.60;99.90;;;7.80;100.00;99373.94;4859697;29;20057;-75
2021/12/05 15:23:35;;;;;;;3.72;2.63;;;7.60;99.90;;;7.67;100.00;99377.81;4862180;29;20706;-76
2021/12/05 15:26:05;;;;;;;5.40;2.60;;;9.30;99.90;;;7.60;100.00;99389.31;4878536;29;20056;-76
2021/12/05 15:28:35;;;;;;;3.65;2.72;;;7.50;99.90;;;7.47;100.00;99394.88;4878473;29;20459;-75
2021/12/05 15:31:05;;;;;;;5.65;3.90;;;8.50;99.90;;;7.52;100.00;99394.78;4895999;29;20717;-75
2021/12/05 15:33:34;;;;;;;6.93;5.00;;;7.30;99.90;;;7.43;100.00;99402.88;4896374;29;20058;-76
2021/12/05 15:36:02;;;;;;;6.03;4.60;;;7.60;99.90;;;7.45;100.00;99408.94;4897268;29;20494;-74
2021/12/05 15:38:32;;;;;;;8.23;3.80;;;7.20;99.90;;;7.36;100.00;99413.50;4896870;29;20040;-75
2021/12/05 15:41:10;;;;;;;7.45;3.40;;;7.20;99.90;;;7.32;100.00;99414.47;4880829;29;20100;-76
2021/12/05 15:43:41;;;;;;;6.35;3.50;;;7.10;99.90;;;7.33;100.00;99418.81;4895939;29;20052;-77
2021/12/05 15:46:12;;;;;;;5.15;3.08;;;7.10;99.90;;;7.31;100.00;99423.22;4896912;29;20647;-75
2021/12/05 15:48:43;;;;;;;6.22;2.65;;;7.10;99.90;;;7.28;100.00;99425.94;4896912;29;20036;-76
2021/12/05 15:51:10;;;;;;;;;;;7.10;99.90;;;7.26;100.00;99422.50;4897536;29;20071;-76
2021/12/05 15:53:39;;;;;;;6.13;3.30;;;7.20;99.90;;;7.18;100.00;99429.69;4896010;29;19926;-75
2021/12/05 15:56:13;;;;;;;6.57;4.60;;;7.00;99.90;;;7.15;100.00;99429.75;4880827;29;20050;-75
2021/12/05 15:59:02;;;;;;;6.90;4.97;;;7.00;99.90;;;7.06;100.00;99431.69;4913361;29;20453;-76
2021/12/05 16:01:30;;;;;;;7.22;4.00;;;6.90;99.90;;;7.02;100.00;99435.28;4882283;29;20063;-77
2021/12/05 16:04:03;;;;;;;17.00;9.25;;;6.90;99.90;;;7.00;100.00;99434.47;4915698;29;20494;-78
2021/12/05 16:06:41;;;;;;;27.48;14.52;;;6.90;99.90;;;7.04;100.00;99436.09;4882238;29;20048;-77
2021/12/05 16:09:23;;;;;;;26.50;14.77;;;6.90;99.90;;;6.92;100.00;99441.63;4895533;29;20051;-75
2021/12/05 16:12:06;;;;;;;30.00;23.50;;;6.80;99.90;;;6.92;100.00;99431.16;4905275;29;20077;-77